Time;durP1;ratioP1;P1;durP2;ratioP2;P2;SDS_P1;SDS_P2;PMS_P1;PMS_P2;Temp;Humidity;BMP_temperature;BMP_pressure;BME280_temperature;BME280_humidity;BME280_pressure;Samples;Min_cycle;Max_cycle;Signal;HPM_P1;HPM_P2
2022/08/05 00:01:38;;;;;;;9.23;3.55;;;;;;;29.44;38.96;101658.09;5096923;28;20118;-76
2022/08/05 00:04:04;;;;;;;8.45;3.28;;;;;;;28.69;40.45;101659.25;5113818;28;20024;-74
2022/08/05 00:06:29;;;;;;;7.20;2.90;;;;;;;29.39;38.88;101658.47;5115428;28;20024;-76
2022/08/05 00:08:55;;;;;;;4.68;2.60;;;;;;;29.53;38.66;101668.16;5096916;28;20023;-76
2022/08/05 00:11:20;;;;;;;12.55;3.85;;;;;;;29.39;39.22;101669.22;5096204;28;20020;-75
2022/08/05 00:13:45;;;;;;;11.00;3.95;;;;;;;28.87;39.93;101668.63;5096905;28;20030;-76
2022/08/05 00:16:14;;;;;;;14.45;5.90;;;;;;;28.63;40.88;101662.34;5096589;28;20044;-76
2022/08/05 00:18:41;;;;;;;10.35;3.28;;;;;;;29.63;38.81;101659.38;5096164;28;20031;-76
2022/08/05 00:21:07;;;;;;;8.18;4.40;;;;;;;28.85;39.85;101649.06;5096653;28;20023;-75
2022/08/05 00:23:32;;;;;;;11.40;4.72;;;;;;;28.96;40.14;101660.84;5096594;28;20034;-76
2022/08/05 00:25:58;;;;;;;10.50;3.80;;;;;;;29.22;39.08;101657.03;5096104;28;20030;-76
2022/08/05 00:28:23;;;;;;;9.23;3.92;;;;;;;28.90;39.71;101662.16;5096676;28;20387;-76
2022/08/05 00:30:48;;;;;;;8.30;3.70;;;;;;;30.09;37.69;101670.06;5114899;28;20026;-76
2022/08/05 00:33:17;;;;;;;5.18;3.45;;;;;;;29.71;38.47;101673.09;5113888;28;20028;-76
2022/08/05 00:35:42;;;;;;;9.02;3.95;;;;;;;28.34;40.84;101663.50;5096383;28;20050;-76
2022/08/05 00:38:08;;;;;;;7.22;3.70;;;;;;;29.01;39.86;101661.34;5114642;28;20092;-76
2022/08/05 00:40:44;;;;;;;5.50;3.25;;;;;;;29.19;39.87;101673.41;5095690;28;20175;-76
2022/08/05 00:43:09;;;;;;;6.88;3.72;;;;;;;28.87;40.32;101657.88;5096457;28;20030;-75
2022/08/05 00:45:35;;;;;;;7.70;3.47;;;;;;;28.33;41.44;101663.63;5114253;28;20028;-76
2022/08/05 00:48:00;;;;;;;5.32;3.47;;;;;;;29.66;38.68;101675.28;5095152;28;20034;-76
2022/08/05 00:50:26;;;;;;;8.05;3.42;;;;;;;28.97;39.75;101662.56;5096094;28;20028;-76
2022/08/05 00:52:52;;;;;;;6.82;3.53;;;;;;;28.75;40.19;101653.41;5095526;28;20055;-76
2022/08/05 00:55:17;;;;;;;10.40;4.75;;;;;;;29.40;39.20;101659.31;5095648;28;20023;-76
2022/08/05 00:57:42;;;;;;;7.07;3.88;;;;;;;29.53;38.47;101676.22;5095991;28;20020;-76
2022/08/05 01:00:09;;;;;;;7.70;4.10;;;;;;;28.79;39.85;101664.81;5094916;28;20127;-76
2022/08/05 01:02:34;;;;;;;9.35;3.80;;;;;;;29.79;38.28;101666.09;5114124;28;20108;-76
2022/08/05 01:04:59;;;;;;;4.40;3.72;;;;;;;29.22;38.74;101670.50;5114372;28;20118;-76
2022/08/05 01:07:25;;;;;;;8.30;3.70;;;;;;;28.27;41.05;101668.50;5095058;28;20031;-76
2022/08/05 01:09:50;;;;;;;8.43;3.78;;;;;;;29.00;39.70;101673.09;5095573;28;20212;-76
2022/08/05 01:12:20;;;;;;;10.55;4.97;;;;;;;28.87;40.12;101678.53;5095856;28;20057;-76
2022/08/05 01:15:01;;;;;;;8.65;4.22;;;;;;;28.69;40.32;101680.78;5094790;28;20047;-76
2022/08/05 01:17:30;;;;;;;6.93;4.28;;;;;;;28.61;40.25;101683.97;5113715;28;20034;-76
2022/08/05 01:20:29;;;;;;;7.22;4.07;;;;;;;29.05;39.74;101692.44;5113820;28;20110;-76
2022/08/05 01:23:03;;;;;;;5.53;3.22;;;;;;;29.03;39.83;101694.38;5094465;28;20433;-76
2022/08/05 01:25:53;;;;;;;7.32;3.38;;;;;;;29.48;38.39;101693.72;5095400;28;20084;-74
2022/08/05 01:28:44;;;;;;;9.40;3.55;;;;;;;29.87;38.33;101708.66;5094658;28;20162;-76
2022/08/05 01:31:33;;;;;;;7.65;3.63;;;;;;;29.49;38.70;101717.84;5095606;28;20536;-76
2022/08/05 01:34:20;;;;;;;6.60;3.75;;;;;;;28.79;39.96;101708.69;5095294;28;20034;-76
2022/08/05 01:36:52;;;;;;;5.82;3.80;;;;;;;29.68;38.39;101719.13;5094443;28;20122;-76
2022/08/05 01:39:18;;;;;;;5.68;2.95;;;;;;;29.06;39.30;101721.06;5113423;28;20490;-76
2022/08/05 01:41:46;;;;;;;3.85;2.97;;;;;;;30.00;37.21;101722.00;5113514;28;20114;-76
2022/08/05 01:44:13;;;;;;;5.15;2.75;;;;;;;29.86;37.81;101715.00;5094000;28;20051;-77
2022/08/05 01:46:39;;;;;;;5.40;3.03;;;;;;;29.45;38.12;101722.59;5094915;28;20019;-76
2022/08/05 01:49:07;;;;;;;7.78;2.80;;;;;;;29.40;39.10;101718.53;5094226;28;20031;-76
2022/08/05 01:51:34;;;;;;;3.42;2.50;;;;;;;28.63;40.22;101706.25;5095012;28;20433;-76
2022/08/05 01:54:02;;;;;;;6.13;2.65;;;;;;;28.56;39.63;101697.78;5112832;28;20785;-76
2022/08/05 01:56:31;;;;;;;5.13;2.42;;;;;;;29.87;37.21;101700.56;5112244;28;20023;-76
2022/08/05 01:58:59;;;;;;;5.97;2.20;;;;;;;29.43;37.82;101708.41;5094756;28;20055;-76
2022/08/05 02:01:26;;;;;;;5.15;2.38;;;;;;;28.69;38.80;101702.28;5094621;28;20027;-76
2022/08/05 02:03:54;;;;;;;4.57;2.08;;;;;;;29.56;37.19;101691.28;5093866;28;20532;-76
2022/08/05 02:06:20;;;;;;;4.57;2.58;;;;;;;28.24;39.96;101682.13;5094841;28;20387;-75
2022/08/05 02:08:45;;;;;;;6.28;2.30;;;;;;;29.18;37.96;101682.47;5094696;28;20034;-76
2022/08/05 02:11:14;;;;;;;5.60;1.98;;;;;;;29.40;37.66;101675.47;5094111;28;20418;-76
2022/08/05 02:13:50;;;;;;;5.60;2.67;;;;;;;27.31;41.07;101670.66;5094643;28;20080;-76
2022/08/05 02:16:22;;;;;;;6.50;1.90;;;;;;;27.35;41.66;101677.53;5094414;28;20023;-76
2022/08/05 02:18:51;;;;;;;3.75;2.38;;;;;;;28.05;40.56;101670.97;5093673;28;20027;-76
2022/08/05 02:21:39;;;;;;;2.25;1.80;;;;;;;28.81;39.19;101679.84;5094787;28;20023;-76
2022/08/05 02:24:09;;;;;;;4.28;2.00;;;;;;;28.81;39.02;101679.84;5112707;28;20289;-76
2022/08/05 02:26:42;;;;;;;4.80;2.03;;;;;;;28.81;39.16;101662.84;5112245;28;20068;-76
2022/08/05 02:29:11;;;;;;;3.33;1.92;;;;;;;28.06;40.80;101672.72;5094516;28;20024;-76
2022/08/05 02:31:37;;;;;;;7.38;2.22;;;;;;;28.09;40.06;101661.72;5093785;28;20104;-76
2022/08/05 02:34:10;;;;;;;2.85;1.80;;;;;;;27.10;42.42;101671.16;5112383;28;20467;-76
2022/08/05 02:36:40;;;;;;;3.70;2.00;;;;;;;27.83;41.13;101675.16;5094245;28;20030;-76
2022/08/05 02:39:08;;;;;;;6.75;2.05;;;;;;;28.33;40.00;101666.31;5093199;28;20562;-76
2022/08/05 02:41:35;;;;;;;2.83;2.03;;;;;;;27.55;40.88;101673.53;5112648;28;20030;-76
2022/08/05 02:44:05;;;;;;;3.83;2.00;;;;;;;27.55;41.69;101673.53;5093919;28;20047;-76
2022/08/05 02:46:31;;;;;;;7.35;1.90;;;;;;;27.55;41.67;101665.50;5093101;28;20020;-77
2022/08/05 02:48:57;;;;;;;4.00;2.40;;;;;;;27.10;42.77;101668.47;5112114;28;20023;-76
2022/08/05 02:51:24;;;;;;;3.17;1.83;;;;;;;27.50;41.86;101654.19;5093729;28;20020;-77
2022/08/05 02:53:50;;;;;;;4.30;2.05;;;;;;;26.95;42.69;101658.78;5093327;28;20030;-74
2022/08/05 02:56:16;;;;;;;2.30;1.90;;;;;;;28.01;40.97;101664.09;5093968;28;20015;-76
2022/08/05 02:58:42;;;;;;;5.00;2.03;;;;;;;27.59;41.65;101667.84;5094096;28;20034;-76
2022/08/05 03:01:18;;;;;;;7.68;1.88;;;;;;;27.92;40.89;101677.19;5111559;28;20024;-76
2022/08/05 03:03:48;;;;;;;2.10;1.60;;;;;;;27.22;41.60;101667.63;5093954;28;20425;-76
2022/08/05 03:06:14;;;;;;;2.17;1.60;;;;;;;28.20;40.38;101675.25;5093933;28;20024;-76
2022/08/05 03:08:40;;;;;;;1.58;1.40;;;;;;;28.00;40.51;101683.88;5093381;28;20082;-76
2022/08/05 03:11:26;;;;;;;3.58;1.65;;;;;;;29.01;38.75;101680.19;5093994;28;20363;-76
2022/08/05 03:13:53;;;;;;;5.78;1.67;;;;;;;28.94;38.62;101675.25;5092996;28;20106;-76
2022/08/05 03:16:19;;;;;;;3.38;1.88;;;;;;;27.66;40.56;101680.84;5093932;28;20097;-76
2022/08/05 03:18:44;;;;;;;3.42;1.70;;;;;;;28.24;39.33;101692.88;5112162;28;20035;-76
2022/08/05 03:21:11;;;;;;;3.47;1.60;;;;;;;29.21;37.94;101686.75;5111456;28;20032;-76
2022/08/05 03:23:39;;;;;;;4.13;1.50;;;;;;;27.88;40.47;101697.19;5111988;28;20407;-76
2022/08/05 03:26:05;;;;;;;9.50;1.75;;;;;;;28.60;39.17;101684.94;5112011;28;20019;-76
2022/08/05 03:28:31;;;;;;;2.95;1.60;;;;;;;28.35;39.46;101677.81;5092791;28;20080;-76
2022/08/05 03:30:58;;;;;;;2.80;1.63;;;;;;;28.20;39.27;101683.31;5093741;28;20093;-76
2022/08/05 03:33:28;;;;;;;1.52;1.30;;;;;;;27.83;40.17;101676.97;5093695;28;20016;-76
2022/08/05 03:35:57;;;;;;;2.30;1.30;;;;;;;27.05;41.15;101684.00;5092853;28;20030;-76
2022/08/05 03:38:24;;;;;;;2.70;1.50;;;;;;;28.23;39.59;101691.19;5095583;28;20018;-76
2022/08/05 03:40:52;;;;;;;1.88;1.20;;;;;;;29.22;37.56;101693.84;5097284;28;20470;-76
2022/08/05 03:43:18;;;;;;;3.55;1.38;;;;;;;28.87;38.14;101695.53;5096459;28;20056;-76
2022/08/05 03:45:43;;;;;;;2.25;1.27;;;;;;;27.88;39.33;101702.56;5115621;28;20103;-75
2022/08/05 03:48:08;;;;;;;2.58;1.73;;;;;;;28.68;38.58;101705.94;5097161;28;20023;-76
2022/08/05 03:50:51;;;;;;;3.38;1.33;;;;;;;28.88;37.83;101713.41;5096626;28;20120;-76
2022/08/05 03:53:51;;;;;;;3.25;1.45;;;;;;;27.92;39.33;101716.63;5097166;28;20031;-76
2022/08/05 03:56:20;;;;;;;2.45;1.45;;;;;;;27.81;39.62;101717.38;5096591;28;20045;-76
2022/08/05 03:58:47;;;;;;;3.17;1.20;;;;;;;27.29;41.06;101720.91;5097152;28;20031;-75
2022/08/05 04:01:16;;;;;;;2.38;1.38;;;;;;;28.79;38.50;101711.38;5097053;28;20019;-76
2022/08/05 04:03:45;;;;;;;4.85;1.95;;;;;;;29.53;37.10;101715.78;5096276;28;20088;-76
2022/08/05 04:06:11;;;;;;;3.85;1.92;;;;;;;27.80;39.53;101715.66;5115067;28;20095;-76
2022/08/05 04:08:37;;;;;;;2.63;1.60;;;;;;;27.35;40.49;101715.13;5096830;28;20110;-76
2022/08/05 04:11:06;;;;;;;2.72;1.60;;;;;;;27.80;39.90;101710.28;5096368;28;20016;-77
2022/08/05 04:13:31;;;;;;;2.75;1.70;;;;;;;28.29;38.91;101703.31;5097036;28;20038;-77
2022/08/05 04:15:57;;;;;;;5.65;1.58;;;;;;;27.99;39.08;101699.13;5096910;28;20106;-77
2022/08/05 04:18:23;;;;;;;3.75;1.80;;;;;;;28.14;39.12;101705.25;5096478;28;20016;-77
2022/08/05 04:20:56;;;;;;;4.18;1.48;;;;;;;27.43;39.87;101692.19;5096689;28;20015;-77
2022/08/05 04:23:22;;;;;;;;;;;;;;;28.61;37.99;101695.59;5096723;28;20483;-77
2022/08/05 04:25:48;;;;;;;4.88;1.33;;;;;;;28.67;38.15;101688.06;5096142;28;19949;-76
2022/08/05 04:28:13;;;;;;;1.38;1.17;;;;;;;28.50;38.11;101698.19;5096420;28;20046;-76
2022/08/05 04:30:38;;;;;;;3.33;1.52;;;;;;;28.05;39.14;101697.84;5114573;28;20402;-77
2022/08/05 04:33:04;;;;;;;2.55;1.40;;;;;;;27.83;39.04;101698.47;5095748;28;20543;-77
2022/08/05 04:35:29;;;;;;;2.08;1.38;;;;;;;26.95;40.67;101696.31;5096337;28;20073;-77
2022/08/05 04:37:54;;;;;;;1.88;1.30;;;;;;;26.92;40.98;101700.91;5096225;28;20023;-76
2022/08/05 04:40:20;;;;;;;4.28;1.52;;;;;;;27.51;39.88;101699.72;5096824;28;20107;-77
2022/08/05 04:42:45;;;;;;;1.40;1.25;;;;;;;27.54;39.64;101699.50;5096372;28;20368;-77
2022/08/05 04:45:11;;;;;;;2.05;1.23;;;;;;;27.39;40.14;101700.56;5095958;28;20560;-77
2022/08/05 04:47:36;;;;;;;1.60;1.20;;;;;;;27.02;41.17;101703.00;5096583;28;20107;-76
2022/08/05 04:50:01;;;;;;;1.60;1.15;;;;;;;27.77;39.59;101699.75;5113905;28;20027;-77
2022/08/05 04:52:27;;;;;;;3.95;2.05;;;;;;;27.56;39.67;101702.97;5095812;28;20023;-77
2022/08/05 04:54:52;;;;;;;1.65;1.30;;;;;;;27.33;40.07;101707.16;5096321;28;20024;-76
2022/08/05 04:57:17;;;;;;;1.50;1.25;;;;;;;27.17;40.40;101699.28;5096245;28;20065;-77
2022/08/05 04:59:43;;;;;;;1.40;1.30;;;;;;;26.77;40.79;101693.03;5095699;28;20078;-77
2022/08/05 05:02:08;;;;;;;2.15;1.30;;;;;;;26.27;42.29;101705.97;5114402;28;20076;-77
2022/08/05 05:04:34;;;;;;;3.55;1.42;;;;;;;26.83;41.19;101698.84;5095978;28;20487;-76
2022/08/05 05:06:59;;;;;;;3.20;1.25;;;;;;;26.52;41.26;101690.06;5095220;28;20040;-76
2022/08/05 05:09:24;;;;;;;4.07;1.50;;;;;;;26.37;42.41;101702.63;5096160;28;20080;-76
2022/08/05 05:11:49;;;;;;;4.38;1.58;;;;;;;26.39;41.78;101694.47;5095962;28;20026;-76
2022/08/05 05:14:15;;;;;;;4.28;1.42;;;;;;;26.37;41.49;101696.41;5095173;28;20024;-77
2022/08/05 05:16:40;;;;;;;3.20;1.63;;;;;;;26.65;41.67;101700.00;5095732;28;20574;-76
2022/08/05 05:19:06;;;;;;;1.58;1.48;;;;;;;26.20;42.60;101705.50;5095503;28;20080;-77
2022/08/05 05:21:31;;;;;;;1.77;1.50;;;;;;;26.35;41.95;101709.03;5095075;28;20027;-77
2022/08/05 05:23:56;;;;;;;2.05;1.30;;;;;;;26.31;42.05;101708.38;5114022;28;20022;-77
2022/08/05 05:26:22;;;;;;;4.03;1.50;;;;;;;26.28;42.44;101715.75;5095311;28;20028;-76
2022/08/05 05:28:47;;;;;;;2.90;1.67;;;;;;;25.73;42.82;101707.44;5094786;28;20600;-76
2022/08/05 05:31:12;;;;;;;2.03;1.23;;;;;;;25.40;44.07;101714.75;5113869;28;20024;-76
2022/08/05 05:33:38;;;;;;;3.17;1.50;;;;;;;24.86;44.83;101716.94;5095578;28;20482;-76
2022/08/05 05:36:03;;;;;;;4.03;1.88;;;;;;;26.00;43.29;101718.28;5095106;28;20019;-76
2022/08/05 05:38:29;;;;;;;1.30;1.20;;;;;;;25.87;43.34;101715.50;5095231;28;20019;-76
2022/08/05 05:40:55;;;;;;;2.35;1.45;;;;;;;25.64;43.57;101724.06;5095629;28;20031;-76
2022/08/05 05:43:22;;;;;;;2.33;1.40;;;;;;;27.04;40.68;101719.88;5094259;28;20023;-77
2022/08/05 05:45:48;;;;;;;2.38;1.25;;;;;;;25.57;43.53;101724.44;5095314;28;20058;-75
2022/08/05 05:48:13;;;;;;;3.35;1.10;;;;;;;26.07;42.28;101732.19;5112695;28;20147;-76
2022/08/05 05:50:39;;;;;;;2.35;1.20;;;;;;;26.52;41.39;101724.91;5095312;28;20106;-77
2022/08/05 05:53:07;;;;;;;2.50;1.10;;;;;;;25.43;43.12;101716.38;5095251;28;20027;-75
2022/08/05 05:55:32;;;;;;;2.95;1.15;;;;;;;26.68;41.07;101715.88;5112694;28;20142;-76
2022/08/05 05:57:58;;;;;;;4.20;1.30;;;;;;;27.33;40.20;101717.91;5113272;28;20055;-77
2022/08/05 06:00:23;;;;;;;3.20;1.30;;;;;;;26.92;40.47;101719.69;5094384;28;20055;-76
2022/08/05 06:02:48;;;;;;;1.20;1.10;;;;;;;27.66;39.08;101718.44;5094541;28;20114;-77
2022/08/05 06:05:15;;;;;;;2.58;0.90;;;;;;;26.12;42.28;101729.22;5095074;28;20035;-77
2022/08/05 06:07:41;;;;;;;4.45;1.73;;;;;;;26.76;40.42;101737.72;5094884;28;20142;-77
2022/08/05 06:10:08;;;;;;;1.75;0.70;;;;;;;26.29;41.33;101746.94;5094660;28;20043;-76
2022/08/05 06:12:35;;;;;;;2.83;1.17;;;;;;;27.29;39.50;101737.00;5094892;28;20024;-76
2022/08/05 06:15:01;;;;;;;1.17;0.80;;;;;;;26.06;41.77;101744.75;5094663;28;20031;-76
2022/08/05 06:17:27;;;;;;;3.45;1.10;;;;;;;26.83;40.07;101741.75;5094120;28;20072;-76
2022/08/05 06:19:52;;;;;;;1.92;0.80;;;;;;;26.87;40.13;101743.28;5113014;28;20469;-76
2022/08/05 06:22:23;;;;;;;4.28;0.90;;;;;;;27.08;39.67;101750.88;5094795;28;20024;-76
2022/08/05 06:24:49;;;;;;;1.48;1.02;;;;;;;26.86;40.08;101754.97;5094157;28;20046;-77
2022/08/05 06:27:15;;;;;;;1.67;0.80;;;;;;;26.83;39.83;101757.84;5094780;28;20407;-78
2022/08/05 06:29:40;;;;;;;0.93;0.80;;;;;;;27.44;39.24;101754.78;5112938;28;20049;-76
2022/08/05 06:32:06;;;;;;;0.70;0.70;;;;;;;26.46;40.58;101765.53;5093541;28;20548;-76
2022/08/05 06:34:32;;;;;;;1.63;0.85;;;;;;;26.73;39.98;101756.72;5094432;28;20034;-77
2022/08/05 06:36:57;;;;;;;1.48;1.00;;;;;;;26.03;41.63;101768.16;5112683;28;20020;-76
2022/08/05 06:39:23;;;;;;;1.13;0.63;;;;;;;26.64;39.92;101762.63;5093881;28;20061;-78
2022/08/05 06:41:48;;;;;;;0.77;0.70;;;;;;;27.81;37.95;101754.09;5112810;28;20030;-76
2022/08/05 06:44:14;;;;;;;1.50;0.68;;;;;;;27.75;37.76;101755.38;5112450;28;20144;-76
2022/08/05 06:46:39;;;;;;;1.52;0.90;;;;;;;26.66;40.01;101766.06;5093842;28;20023;-76
2022/08/05 06:49:04;;;;;;;2.50;0.88;;;;;;;26.71;39.76;101769.38;5094515;28;20024;-77
2022/08/05 06:51:30;;;;;;;3.13;0.80;;;;;;;27.86;38.10;101760.91;5094085;28;20026;-77
2022/08/05 06:54:00;;;;;;;1.55;0.88;;;;;;;27.63;37.09;101766.97;5094126;28;20106;-76
2022/08/05 06:56:26;;;;;;;0.50;0.50;;;;;;;30.13;33.20;101770.44;5094108;28;20031;-76
2022/08/05 06:58:52;;;;;;;1.65;0.50;;;;;;;29.95;32.96;101778.97;5093614;28;20463;-76
2022/08/05 07:01:17;;;;;;;0.50;0.50;;;;;;;32.33;29.85;101768.53;5094246;28;20023;-76
2022/08/05 07:03:43;;;;;;;0.50;0.50;;;;;;;32.50;28.71;101765.19;5094067;28;20084;-77
2022/08/05 07:06:08;;;;;;;0.90;0.60;;;;;;;32.54;28.12;101776.59;5112009;28;20019;-76
2022/08/05 07:08:34;;;;;;;1.40;0.55;;;;;;;32.91;27.76;101774.16;5093979;28;20418;-76
2022/08/05 07:10:59;;;;;;;1.92;0.43;;;;;;;33.99;26.69;101782.28;5112531;28;20055;-78
2022/08/05 07:18:52;;;;;;;1.60;0.30;;;;;;;33.15;27.00;101791.84;5116555;28;20581;-75
2022/08/05 07:21:18;;;;;;;3.22;0.50;;;;;;;31.63;28.40;101810.47;5097261;28;20122;-76
2022/08/05 07:23:43;;;;;;;1.65;0.32;;;;;;;32.72;26.57;101796.59;5097839;28;20051;-76
2022/08/05 07:26:09;;;;;;;1.25;0.40;;;;;;;33.07;25.53;101800.69;5097794;28;20114;-76
2022/08/05 07:28:34;;;;;;;1.80;0.50;;;;;;;35.81;24.15;101802.38;5097260;28;20024;-77
2022/08/05 07:30:59;;;;;;;0.43;0.43;;;;;;;35.86;22.04;101812.81;5097959;28;20516;-76
2022/08/05 07:33:25;;;;;;;0.95;0.50;;;;;;;34.87;22.91;101817.28;5098414;28;20390;-77
2022/08/05 07:35:50;;;;;;;1.65;0.60;;;;;;;34.46;24.40;101824.88;5097126;28;20081;-77
2022/08/05 07:38:16;;;;;;;1.30;0.55;;;;;;;34.90;23.59;101826.94;5097840;28;20023;-75
2022/08/05 07:40:42;;;;;;;2.97;0.40;;;;;;;35.66;23.85;101826.56;5097555;28;20027;-76
2022/08/05 07:43:08;;;;;;;3.72;0.60;;;;;;;35.28;22.82;101828.59;5097444;28;20471;-76
2022/08/05 07:45:34;;;;;;;1.98;0.60;;;;;;;33.34;25.60;101828.13;5097692;28;20024;-75
2022/08/05 07:47:59;;;;;;;2.15;0.68;;;;;;;33.70;26.00;101833.81;5097085;28;20054;-75
2022/08/05 07:50:24;;;;;;;1.27;0.90;;;;;;;32.51;27.54;101837.25;5116303;28;20481;-76
2022/08/05 07:52:51;;;;;;;4.30;0.90;;;;;;;32.95;27.19;101845.97;5115589;28;20043;-77
2022/08/05 07:55:16;;;;;;;1.63;0.38;;;;;;;31.40;27.56;101858.28;5115191;28;20024;-78
2022/08/05 07:57:42;;;;;;;0.93;0.30;;;;;;;33.03;25.38;101852.53;5097958;28;20110;-78
2022/08/05 08:00:08;;;;;;;2.92;0.50;;;;;;;32.72;26.44;101863.41;5097417;28;20027;-77
2022/08/05 08:02:34;;;;;;;0.77;0.50;;;;;;;30.88;28.60;101863.38;5115580;28;20475;-77
2022/08/05 08:04:59;;;;;;;0.73;0.40;;;;;;;30.84;28.87;101872.69;5116150;28;20063;-78
2022/08/05 08:07:25;;;;;;;1.25;0.45;;;;;;;31.84;27.15;101866.38;5097485;28;20027;-78
2022/08/05 08:09:51;;;;;;;1.65;0.60;;;;;;;31.46;28.42;101867.72;5097165;28;20043;-77
2022/08/05 08:12:17;;;;;;;1.58;0.60;;;;;;;32.33;27.24;101876.69;5097523;28;20020;-77
2022/08/05 08:14:43;;;;;;;0.55;0.40;;;;;;;32.07;27.41;101879.81;5097937;28;20024;-78
2022/08/05 08:17:11;;;;;;;2.05;0.52;;;;;;;31.20;29.05;101881.56;5097421;28;20092;-78
2022/08/05 08:19:38;;;;;;;0.52;0.40;;;;;;;31.35;29.31;101886.66;5115611;28;20032;-78
2022/08/05 08:22:04;;;;;;;6.13;0.80;;;;;;;31.32;28.83;101889.63;5115483;28;20028;-78
2022/08/05 08:24:30;;;;;;;1.60;0.65;;;;;;;29.75;30.21;101888.22;5095963;28;20027;-78
2022/08/05 08:26:56;;;;;;;1.35;0.85;;;;;;;30.42;30.34;101894.00;5115327;28;20024;-78
2022/08/05 08:29:21;;;;;;;3.08;0.50;;;;;;;30.75;29.83;101895.06;5097285;28;20072;-77
2022/08/05 08:31:47;;;;;;;0.85;0.40;;;;;;;29.92;30.85;101892.38;5096339;28;20137;-77
2022/08/05 08:34:13;;;;;;;1.13;0.63;;;;;;;31.09;29.23;101886.94;5097216;28;20061;-77
2022/08/05 08:36:38;;;;;;;1.55;0.47;;;;;;;30.96;29.59;101884.38;5115297;28;20036;-77
2022/08/05 08:39:04;;;;;;;2.28;0.47;;;;;;;30.29;30.71;101888.69;5096348;28;20031;-76
2022/08/05 08:41:33;;;;;;;2.30;0.43;;;;;;;30.85;30.12;101896.00;5114722;28;20043;-77
2022/08/05 08:44:00;;;;;;;1.80;0.30;;;;;;;30.51;30.03;101898.69;5096250;28;20036;-78
2022/08/05 08:46:30;;;;;;;0.60;0.50;;;;;;;31.83;28.79;101897.09;5114962;28;20039;-78
2022/08/05 08:48:57;;;;;;;0.55;0.30;;;;;;;31.01;29.01;101910.97;5096512;28;20119;-78
2022/08/05 08:51:26;;;;;;;7.32;0.57;;;;;;;30.32;29.39;101903.78;5095749;28;20483;-76
2022/08/05 08:53:52;;;;;;;1.58;0.40;;;;;;;30.58;28.86;101915.25;5096354;28;20028;-78
2022/08/05 08:56:19;;;;;;;2.55;0.40;;;;;;;29.91;29.61;101923.00;5096688;28;20023;-78
2022/08/05 08:58:45;;;;;;;2.80;0.47;;;;;;;30.68;27.73;101931.56;5113844;28;20076;-78
2022/08/05 09:01:11;;;;;;;1.05;0.20;;;;;;;30.59;28.08;101931.31;5096501;28;20467;-77
2022/08/05 09:03:37;;;;;;;2.35;0.30;;;;;;;29.74;29.93;101942.22;5096199;28;20023;-77
2022/08/05 09:06:02;;;;;;;2.17;0.20;;;;;;;28.08;31.40;101939.44;5095471;28;20031;-76
2022/08/05 09:08:28;;;;;;;1.20;0.20;;;;;;;29.78;29.47;101949.94;5096141;28;20027;-77
2022/08/05 09:10:53;;;;;;;0.50;0.28;;;;;;;29.47;30.21;101946.00;5095803;28;20106;-77
2022/08/05 09:13:19;;;;;;;1.02;0.40;;;;;;;29.68;28.89;101950.78;5095532;28;20383;-78
2022/08/05 09:15:48;;;;;;;0.75;0.22;;;;;;;28.65;29.68;101950.91;5114653;28;20027;-77
2022/08/05 09:18:13;;;;;;;1.65;0.30;;;;;;;27.92;31.96;101959.25;5114174;28;20042;-77
2022/08/05 09:20:42;;;;;;;0.73;0.25;;;;;;;29.43;29.83;101966.88;5095325;28;20487;-77
2022/08/05 09:23:16;;;;;;;0.73;0.40;;;;;;;28.40;31.44;101963.31;5095789;28;20061;-78
2022/08/05 09:25:46;;;;;;;2.75;0.50;;;;;;;28.70;30.84;101967.56;5095946;28;20076;-78
2022/08/05 09:28:14;;;;;;;0.30;0.30;;;;;;;29.49;30.00;101962.88;5095095;28;20047;-77
2022/08/05 09:31:07;;;;;;;1.13;0.40;;;;;;;29.41;30.05;101962.59;5114007;28;20047;-78
2022/08/05 09:33:48;;;;;;;1.20;0.45;;;;;;;30.51;29.65;101962.56;5088737;28;20688;-78
2022/08/05 09:36:13;;;;;;;0.57;0.38;;;;;;;28.71;31.34;101977.34;5112855;28;20124;-77
2022/08/05 09:38:54;;;;;;;0.65;0.40;;;;;;;29.35;30.13;101973.81;5095680;28;20087;-78
2022/08/05 09:41:20;;;;;;;1.77;0.32;;;;;;;29.97;28.92;101977.41;5094719;28;20506;-78
2022/08/05 09:43:45;;;;;;;2.95;0.30;;;;;;;28.59;30.89;101977.19;5095333;28;20047;-78
2022/08/05 09:46:25;;;;;;;1.20;0.60;;;;;;;29.39;29.78;101986.09;5113932;28;20539;-78
2022/08/05 09:48:52;;;;;;;1.30;0.40;;;;;;;28.09;31.23;101992.22;5112849;28;20031;-77
2022/08/05 09:51:33;;;;;;;0.82;0.35;;;;;;;29.50;29.03;101987.97;5095260;28;20128;-77
2022/08/05 09:53:59;;;;;;;1.00;0.50;;;;;;;30.12;28.40;101995.97;5095415;28;20051;-78
2022/08/05 09:56:34;;;;;;;3.22;0.32;;;;;;;30.25;28.56;101995.94;5095027;28;20031;-77
2022/08/05 09:59:02;;;;;;;1.27;0.38;;;;;;;28.89;30.42;101992.22;5113719;28;20506;-77
2022/08/05 10:01:29;;;;;;;2.40;0.30;;;;;;;28.69;30.19;102003.50;5094450;28;20024;-78
2022/08/05 10:04:03;;;;;;;1.10;0.30;;;;;;;29.68;29.09;102007.34;5095233;28;20121;-77
2022/08/05 10:06:29;;;;;;;3.67;0.30;;;;;;;29.75;29.60;102009.44;5113421;28;20028;-77
2022/08/05 10:09:14;;;;;;;0.30;0.30;;;;;;;29.00;29.57;102007.59;5094842;28;20080;-77
2022/08/05 10:11:41;;;;;;;1.25;0.25;;;;;;;29.86;28.25;102011.41;5113102;28;20128;-77
2022/08/05 10:14:24;;;;;;;2.75;0.50;;;;;;;30.22;28.40;102012.31;5094703;28;20096;-77
2022/08/05 10:16:50;;;;;;;1.42;0.47;;;;;;;29.61;29.95;102013.16;5094312;28;20026;-78
2022/08/05 10:19:15;;;;;;;1.13;0.40;;;;;;;30.19;28.09;102015.25;5095077;28;20487;-77
2022/08/05 10:21:41;;;;;;;1.05;0.25;;;;;;;29.41;28.19;102013.75;5094696;28;20128;-77
2022/08/05 10:24:13;;;;;;;0.45;0.30;;;;;;;30.00;27.53;102020.28;5094244;28;20418;-77
2022/08/05 10:26:41;;;;;;;1.52;0.32;;;;;;;30.51;27.90;102016.50;5113129;28;20098;-78
2022/08/05 10:29:07;;;;;;;0.20;0.20;;;;;;;30.57;28.37;102025.00;5112702;28;20035;-77
2022/08/05 10:31:33;;;;;;;3.15;0.45;;;;;;;31.36;27.68;102023.41;5112002;28;20042;-77
2022/08/05 10:33:59;;;;;;;1.10;0.55;;;;;;;31.22;28.12;102030.78;5094710;28;20462;-76
2022/08/05 10:36:24;;;;;;;1.20;0.30;;;;;;;30.55;28.96;102024.22;5094510;28;20027;-77
2022/08/05 10:38:56;;;;;;;1.38;0.30;;;;;;;30.55;27.40;102026.94;5112347;28;20395;-77
2022/08/05 10:41:33;;;;;;;0.93;0.45;;;;;;;30.45;28.19;102034.03;5112523;28;20055;-76
2022/08/05 10:44:04;;;;;;;2.67;0.45;;;;;;;31.30;27.97;102025.63;5112061;28;20453;-77
2022/08/05 10:46:56;;;;;;;0.90;0.43;;;;;;;31.11;27.82;102025.38;5094240;28;20027;-77
2022/08/05 10:49:24;;;;;;;0.30;0.30;;;;;;;31.64;27.23;102038.28;5107766;28;20038;-78
2022/08/05 10:51:59;;;;;;;1.65;0.28;;;;;;;30.48;26.95;102044.56;5112252;28;20051;-77
2022/08/05 10:54:45;;;;;;;1.17;0.30;;;;;;;30.82;26.88;102041.97;5094441;28;20031;-78
2022/08/05 10:57:11;;;;;;;1.15;0.40;;;;;;;29.85;26.14;102042.00;5094670;28;20034;-78
2022/08/05 10:59:38;;;;;;;0.60;0.40;;;;;;;29.50;24.98;102040.00;5093852;28;20073;-78
2022/08/05 11:02:08;;;;;;;0.35;0.35;;;;;;;29.06;24.62;102044.00;5112749;28;20020;-77
2022/08/05 11:04:44;;;;;;;0.75;0.20;;;;;;;30.31;23.06;102048.53;5112772;28;20100;-77
2022/08/05 11:07:15;;;;;;;0.25;0.25;;;;;;;30.89;22.96;102047.75;5094385;28;20051;-78
2022/08/05 11:09:50;;;;;;;0.45;0.40;;;;;;;29.96;24.08;102054.69;5094276;28;20035;-78
2022/08/05 11:12:25;;;;;;;0.70;0.20;;;;;;;30.85;23.94;102051.69;5093782;28;20383;-78
2022/08/05 11:15:06;;;;;;;1.40;0.30;;;;;;;30.77;22.51;102055.81;5112674;28;20028;-78
2022/08/05 11:17:36;;;;;;;0.82;0.47;;;;;;;31.79;21.99;102065.88;5094385;28;20148;-77
2022/08/05 11:20:03;;;;;;;0.50;0.28;;;;;;;30.63;23.08;102064.13;5094107;28;20023;-77
2022/08/05 11:22:42;;;;;;;0.60;0.30;;;;;;;31.09;23.67;102059.72;5094543;28;20061;-77
2022/08/05 11:25:31;;;;;;;1.95;0.47;;;;;;;30.60;24.66;102067.91;5094453;28;20020;-77
2022/08/05 11:28:17;;;;;;;0.20;0.20;;;;;;;32.62;22.00;102072.53;5111904;28;20077;-77
2022/08/05 11:30:57;;;;;;;0.20;0.20;;;;;;;30.92;23.48;102069.13;5076694;28;20037;-77
2022/08/05 11:33:34;;;;;;;0.50;0.30;;;;;;;31.76;24.32;102080.50;5094184;28;20039;-78
2022/08/05 11:36:01;;;;;;;0.82;0.43;;;;;;;32.69;24.07;102077.44;5112629;28;20027;-77